sensor_id;sensor_type;location;lat;lon;timestamp;temperature;humidity
41256;DHT22;26989;45.524;10.938;2023-08-17T00:01:36;25.80;99.60
41256;DHT22;26989;45.524;10.938;2023-08-17T00:04:03;25.80;99.60
41256;DHT22;26989;45.524;10.938;2023-08-17T00:06:30;25.80;99.60
41256;DHT22;26989;45.524;10.938;2023-08-17T00:08:57;25.70;99.70
41256;DHT22;26989;45.524;10.938;2023-08-17T00:11:24;25.60;99.80
41256;DHT22;26989;45.524;10.938;2023-08-17T00:13:51;25.60;99.90
41256;DHT22;26989;45.524;10.938;2023-08-17T00:16:18;25.50;99.90
41256;DHT22;26989;45.524;10.938;2023-08-17T00:18:45;25.50;99.90
41256;DHT22;26989;45.524;10.938;2023-08-17T00:21:11;25.50;99.90
41256;DHT22;26989;45.524;10.938;2023-08-17T00:23:39;25.40;99.90
41256;DHT22;26989;45.524;10.938;2023-08-17T00:26:06;25.30;99.90
41256;DHT22;26989;45.524;10.938;2023-08-17T00:28:33;25.40;99.90
41256;DHT22;26989;45.524;10.938;2023-08-17T00:31:00;25.40;99.90
41256;DHT22;26989;45.524;10.938;2023-08-17T00:33:27;25.30;99.90
41256;DHT22;26989;45.524;10.938;2023-08-17T00:35:54;25.10;99.90
41256;DHT22;26989;45.524;10.938;2023-08-17T00:38:21;25.00;99.90
41256;DHT22;26989;45.524;10.938;2023-08-17T00:40:48;24.90;99.90
41256;DHT22;26989;45.524;10.938;2023-08-17T00:43:15;24.90;99.90
41256;DHT22;26989;45.524;10.938;2023-08-17T00:45:44;24.90;99.90
41256;DHT22;26989;45.524;10.938;2023-08-17T00:48:13;24.90;99.90
41256;DHT22;26989;45.524;10.938;2023-08-17T00:50:40;24.90;99.90
41256;DHT22;26989;45.524;10.938;2023-08-17T00:53:07;24.90;99.90
41256;DHT22;26989;45.524;10.938;2023-08-17T00:55:40;24.90;99.90
41256;DHT22;26989;45.524;10.938;2023-08-17T00:58:07;24.90;99.90
41256;DHT22;26989;45.524;10.938;2023-08-17T01:00:34;24.80;99.90
41256;DHT22;26989;45.524;10.938;2023-08-17T01:03:02;24.80;99.90
41256;DHT22;26989;45.524;10.938;2023-08-17T01:05:29;24.60;99.90
41256;DHT22;26989;45.524;10.938;2023-08-17T01:08:00;24.60;99.90
41256;DHT22;26989;45.524;10.938;2023-08-17T01:10:34;24.50;99.90
41256;DHT22;26989;45.524;10.938;2023-08-17T01:13:15;24.40;99.90
41256;DHT22;26989;45.524;10.938;2023-08-17T01:15:54;24.50;99.90
41256;DHT22;26989;45.524;10.938;2023-08-17T01:18:35;24.50;99.90
41256;DHT22;26989;45.524;10.938;2023-08-17T01:21:05;24.50;99.90
41256;DHT22;26989;45.524;10.938;2023-08-17T01:23:32;24.50;99.90
41256;DHT22;26989;45.524;10.938;2023-08-17T01:25:59;24.30;99.90
41256;DHT22;26989;45.524;10.938;2023-08-17T01:28:27;24.30;99.90
41256;DHT22;26989;45.524;10.938;2023-08-17T01:33:43;24.50;99.90
41256;DHT22;26989;45.524;10.938;2023-08-17T01:36:16;24.30;99.90
41256;DHT22;26989;45.524;10.938;2023-08-17T01:38:45;24.30;99.90
41256;DHT22;26989;45.524;10.938;2023-08-17T01:41:13;24.40;99.90
41256;DHT22;26989;45.524;10.938;2023-08-17T01:43:43;24.30;99.90
41256;DHT22;26989;45.524;10.938;2023-08-17T01:46:17;24.40;99.90
41256;DHT22;26989;45.524;10.938;2023-08-17T01:48:45;24.40;99.90
41256;DHT22;26989;45.524;10.938;2023-08-17T01:51:19;24.40;99.90
41256;DHT22;26989;45.524;10.938;2023-08-17T01:53:49;24.40;99.90
41256;DHT22;26989;45.524;10.938;2023-08-17T01:56:16;24.40;99.90
41256;DHT22;26989;45.524;10.938;2023-08-17T01:58:43;24.50;99.90
41256;DHT22;26989;45.524;10.938;2023-08-17T02:01:10;24.50;99.90
41256;DHT22;26989;45.524;10.938;2023-08-17T02:03:37;24.50;99.90
41256;DHT22;26989;45.524;10.938;2023-08-17T02:06:04;24.60;99.90
41256;DHT22;26989;45.524;10.938;2023-08-17T02:08:33;24.50;99.90
41256;DHT22;26989;45.524;10.938;2023-08-17T02:11:00;24.50;99.90
41256;DHT22;26989;45.524;10.938;2023-08-17T02:13:27;24.40;99.90
41256;DHT22;26989;45.524;10.938;2023-08-17T02:15:54;24.40;99.90
41256;DHT22;26989;45.524;10.938;2023-08-17T02:18:21;24.20;99.90
41256;DHT22;26989;45.524;10.938;2023-08-17T02:20:48;24.10;99.90
41256;DHT22;26989;45.524;10.938;2023-08-17T02:23:15;23.90;99.90
41256;DHT22;26989;45.524;10.938;2023-08-17T02:25:42;23.80;99.90
41256;DHT22;26989;45.524;10.938;2023-08-17T02:28:09;23.80;99.90
41256;DHT22;26989;45.524;10.938;2023-08-17T02:30:36;23.80;99.90
41256;DHT22;26989;45.524;10.938;2023-08-17T02:33:03;23.80;99.90
41256;DHT22;26989;45.524;10.938;2023-08-17T02:35:30;23.80;99.90
41256;DHT22;26989;45.524;10.938;2023-08-17T02:37:57;23.80;99.90
41256;DHT22;26989;45.524;10.938;2023-08-17T02:40:24;23.80;99.90
41256;DHT22;26989;45.524;10.938;2023-08-17T02:42:51;23.80;99.90
41256;DHT22;26989;45.524;10.938;2023-08-17T02:45:18;23.80;99.90
41256;DHT22;26989;45.524;10.938;2023-08-17T02:47:45;23.80;99.90
41256;DHT22;26989;45.524;10.938;2023-08-17T02:50:12;23.70;99.90
41256;DHT22;26989;45.524;10.938;2023-08-17T02:52:39;23.60;99.90
41256;DHT22;26989;45.524;10.938;2023-08-17T02:55:06;23.50;99.90
41256;DHT22;26989;45.524;10.938;2023-08-17T02:57:33;23.40;99.90
41256;DHT22;26989;45.524;10.938;2023-08-17T02:59:59;23.30;99.90
41256;DHT22;26989;45.524;10.938;2023-08-17T03:02:26;23.30;99.90
41256;DHT22;26989;45.524;10.938;2023-08-17T03:04:53;23.30;99.90
41256;DHT22;26989;45.524;10.938;2023-08-17T03:07:20;23.00;99.90
41256;DHT22;26989;45.524;10.938;2023-08-17T03:09:47;23.10;99.90
41256;DHT22;26989;45.524;10.938;2023-08-17T03:12:14;23.00;99.90
41256;DHT22;26989;45.524;10.938;2023-08-17T03:14:41;22.90;99.90
41256;DHT22;26989;45.524;10.938;2023-08-17T03:17:08;22.80;99.90
41256;DHT22;26989;45.524;10.938;2023-08-17T03:19:34;22.90;99.90
41256;DHT22;26989;45.524;10.938;2023-08-17T03:22:01;22.90;99.90
41256;DHT22;26989;45.524;10.938;2023-08-17T03:24:28;22.90;99.90
41256;DHT22;26989;45.524;10.938;2023-08-17T03:26:55;22.70;99.90
41256;DHT22;26989;45.524;10.938;2023-08-17T03:29:22;22.70;99.90
41256;DHT22;26989;45.524;10.938;2023-08-17T03:31:49;22.70;99.90
41256;DHT22;26989;45.524;10.938;2023-08-17T03:34:16;22.80;99.90
41256;DHT22;26989;45.524;10.938;2023-08-17T03:36:43;22.80;99.90
41256;DHT22;26989;45.524;10.938;2023-08-17T03:39:10;22.60;99.90
41256;DHT22;26989;45.524;10.938;2023-08-17T03:41:37;22.60;99.90
41256;DHT22;26989;45.524;10.938;2023-08-17T03:44:04;22.60;99.90
41256;DHT22;26989;45.524;10.938;2023-08-17T03:46:33;22.70;99.90
41256;DHT22;26989;45.524;10.938;2023-08-17T03:49:00;22.70;99.90
41256;DHT22;26989;45.524;10.938;2023-08-17T03:51:27;22.70;99.90
41256;DHT22;26989;45.524;10.938;2023-08-17T03:53:54;22.60;99.90
41256;DHT22;26989;45.524;10.938;2023-08-17T03:56:21;22.60;99.90
41256;DHT22;26989;45.524;10.938;2023-08-17T03:58:47;22.60;99.90
41256;DHT22;26989;45.524;10.938;2023-08-17T04:01:14;22.60;99.90
41256;DHT22;26989;45.524;10.938;2023-08-17T04:03:41;22.50;99.90
41256;DHT22;26989;45.524;10.938;2023-08-17T04:06:08;22.50;99.90
41256;DHT22;26989;45.524;10.938;2023-08-17T04:08:37;22.60;99.90
41256;DHT22;26989;45.524;10.938;2023-08-17T04:11:05;22.40;99.90
41256;DHT22;26989;45.524;10.938;2023-08-17T04:13:32;22.50;99.90
41256;DHT22;26989;45.524;10.938;2023-08-17T04:15:59;22.50;99.90
41256;DHT22;26989;45.524;10.938;2023-08-17T04:18:26;22.50;99.90
41256;DHT22;26989;45.524;10.938;2023-08-17T04:20:53;22.50;99.90
41256;DHT22;26989;45.524;10.938;2023-08-17T04:23:21;22.60;99.90
41256;DHT22;26989;45.524;10.938;2023-08-17T04:25:48;22.50;99.90
41256;DHT22;26989;45.524;10.938;2023-08-17T04:28:15;22.40;99.90
41256;DHT22;26989;45.524;10.938;2023-08-17T04:30:42;22.40;99.90
41256;DHT22;26989;45.524;10.938;2023-08-17T04:33:10;22.40;99.90
41256;DHT22;26989;45.524;10.938;2023-08-17T04:35:37;22.40;99.90
41256;DHT22;26989;45.524;10.938;2023-08-17T04:38:03;22.40;99.90
41256;DHT22;26989;45.524;10.938;2023-08-17T04:40:31;22.40;99.90
41256;DHT22;26989;45.524;10.938;2023-08-17T04:42:58;22.40;99.90
41256;DHT22;26989;45.524;10.938;2023-08-17T04:45:25;22.40;99.90
41256;DHT22;26989;45.524;10.938;2023-08-17T04:47:52;22.40;99.90
41256;DHT22;26989;45.524;10.938;2023-08-17T04:50:19;22.60;99.90
41256;DHT22;26989;45.524;10.938;2023-08-17T04:52:46;22.60;99.90
41256;DHT22;26989;45.524;10.938;2023-08-17T04:55:14;22.80;99.90
41256;DHT22;26989;45.524;10.938;2023-08-17T04:57:41;22.90;99.90
41256;DHT22;26989;45.524;10.938;2023-08-17T05:00:08;22.80;99.90
41256;DHT22;26989;45.524;10.938;2023-08-17T05:02:36;22.60;99.90
41256;DHT22;26989;45.524;10.938;2023-08-17T05:05:09;22.80;99.90
41256;DHT22;26989;45.524;10.938;2023-08-17T05:07:36;22.90;99.90
41256;DHT22;26989;45.524;10.938;2023-08-17T05:10:03;22.80;99.90
41256;DHT22;26989;45.524;10.938;2023-08-17T05:12:30;22.90;99.90
41256;DHT22;26989;45.524;10.938;2023-08-17T05:14:57;24.30;99.90
41256;DHT22;26989;45.524;10.938;2023-08-17T05:17:24;25.10;99.90
41256;DHT22;26989;45.524;10.938;2023-08-17T05:19:51;25.10;99.90
41256;DHT22;26989;45.524;10.938;2023-08-17T05:22:18;25.10;99.90
41256;DHT22;26989;45.524;10.938;2023-08-17T05:24:45;25.10;99.90
41256;DHT22;26989;45.524;10.938;2023-08-17T05:27:12;26.10;99.90
41256;DHT22;26989;45.524;10.938;2023-08-17T05:29:39;25.90;99.90
41256;DHT22;26989;45.524;10.938;2023-08-17T05:32:06;25.70;99.90
41256;DHT22;26989;45.524;10.938;2023-08-17T05:34:33;26.40;99.90
41256;DHT22;26989;45.524;10.938;2023-08-17T05:37:00;27.10;99.50
41256;DHT22;26989;45.524;10.938;2023-08-17T05:39:27;28.30;98.10
41256;DHT22;26989;45.524;10.938;2023-08-17T05:41:54;30.20;97.00
41256;DHT22;26989;45.524;10.938;2023-08-17T05:44:21;29.80;96.80
41256;DHT22;26989;45.524;10.938;2023-08-17T05:46:47;29.30;97.30
41256;DHT22;26989;45.524;10.938;2023-08-17T05:49:15;28.10;97.50
41256;DHT22;26989;45.524;10.938;2023-08-17T05:51:42;28.40;97.40
41256;DHT22;26989;45.524;10.938;2023-08-17T05:54:09;29.30;97.20
41256;DHT22;26989;45.524;10.938;2023-08-17T05:56:35;29.90;97.00
41256;DHT22;26989;45.524;10.938;2023-08-17T05:59:02;30.30;96.40
41256;DHT22;26989;45.524;10.938;2023-08-17T06:01:29;30.20;96.40
41256;DHT22;26989;45.524;10.938;2023-08-17T06:03:58;30.50;96.30
41256;DHT22;26989;45.524;10.938;2023-08-17T06:06:24;31.00;95.70
41256;DHT22;26989;45.524;10.938;2023-08-17T06:08:53;31.90;95.30
41256;DHT22;26989;45.524;10.938;2023-08-17T06:11:19;32.50;94.60
41256;DHT22;26989;45.524;10.938;2023-08-17T06:13:46;33.60;93.50
41256;DHT22;26989;45.524;10.938;2023-08-17T06:16:13;35.30;92.00
41256;DHT22;26989;45.524;10.938;2023-08-17T06:18:40;35.20;91.50
41256;DHT22;26989;45.524;10.938;2023-08-17T06:21:08;35.00;91.80
41256;DHT22;26989;45.524;10.938;2023-08-17T06:23:35;36.00;91.00
41256;DHT22;26989;45.524;10.938;2023-08-17T06:26:02;32.90;92.10
41256;DHT22;26989;45.524;10.938;2023-08-17T06:28:29;31.30;93.40
41256;DHT22;26989;45.524;10.938;2023-08-17T06:30:56;30.80;94.70
41256;DHT22;26989;45.524;10.938;2023-08-17T06:33:23;30.00;95.20
41256;DHT22;26989;45.524;10.938;2023-08-17T06:35:51;29.30;96.00
41256;DHT22;26989;45.524;10.938;2023-08-17T06:38:18;28.80;96.90
41256;DHT22;26989;45.524;10.938;2023-08-17T06:40:45;28.60;97.20
41256;DHT22;26989;45.524;10.938;2023-08-17T06:43:12;32.30;95.10
41256;DHT22;26989;45.524;10.938;2023-08-17T06:45:42;34.20;93.40
41256;DHT22;26989;45.524;10.938;2023-08-17T06:48:08;35.20;92.30
41256;DHT22;26989;45.524;10.938;2023-08-17T06:50:35;35.60;91.70
41256;DHT22;26989;45.524;10.938;2023-08-17T06:53:02;35.70;90.90
41256;DHT22;26989;45.524;10.938;2023-08-17T06:55:29;35.20;90.90
41256;DHT22;26989;45.524;10.938;2023-08-17T06:57:57;32.60;92.20
41256;DHT22;26989;45.524;10.938;2023-08-17T07:00:24;31.30;93.20
41256;DHT22;26989;45.524;10.938;2023-08-17T07:02:51;30.30;94.60
41256;DHT22;26989;45.524;10.938;2023-08-17T07:05:22;29.80;95.20
41256;DHT22;26989;45.524;10.938;2023-08-17T07:07:50;29.40;95.80
41256;DHT22;26989;45.524;10.938;2023-08-17T07:10:17;29.30;96.20
41256;DHT22;26989;45.524;10.938;2023-08-17T07:12:44;29.10;96.30
41256;DHT22;26989;45.524;10.938;2023-08-17T07:15:12;28.90;96.10
41256;DHT22;26989;45.524;10.938;2023-08-17T07:17:39;28.90;96.80
41256;DHT22;26989;45.524;10.938;2023-08-17T07:20:07;29.00;96.80
41256;DHT22;26989;45.524;10.938;2023-08-17T07:22:37;28.90;96.50
41256;DHT22;26989;45.524;10.938;2023-08-17T07:25:04;29.00;96.70
41256;DHT22;26989;45.524;10.938;2023-08-17T07:27:31;29.00;96.80
41256;DHT22;26989;45.524;10.938;2023-08-17T07:29:58;29.10;96.40
41256;DHT22;26989;45.524;10.938;2023-08-17T07:32:25;29.20;96.30
41256;DHT22;26989;45.524;10.938;2023-08-17T07:34:52;28.80;96.70
41256;DHT22;26989;45.524;10.938;2023-08-17T07:37:20;28.70;96.80
41256;DHT22;26989;45.524;10.938;2023-08-17T07:39:46;28.80;96.80
41256;DHT22;26989;45.524;10.938;2023-08-17T07:42:13;28.70;97.00
41256;DHT22;26989;45.524;10.938;2023-08-17T07:44:40;28.80;96.80
41256;DHT22;26989;45.524;10.938;2023-08-17T07:47:08;28.40;97.60
41256;DHT22;26989;45.524;10.938;2023-08-17T07:49:35;27.80;98.30
41256;DHT22;26989;45.524;10.938;2023-08-17T07:52:02;27.10;98.70
41256;DHT22;26989;45.524;10.938;2023-08-17T07:54:29;27.50;98.80
41256;DHT22;26989;45.524;10.938;2023-08-17T07:56:56;27.60;98.70
41256;DHT22;26989;45.524;10.938;2023-08-17T07:59:23;27.00;98.90
41256;DHT22;26989;45.524;10.938;2023-08-17T08:01:50;27.40;98.60
41256;DHT22;26989;45.524;10.938;2023-08-17T08:04:17;28.10;97.80
41256;DHT22;26989;45.524;10.938;2023-08-17T08:06:44;28.30;97.30
41256;DHT22;26989;45.524;10.938;2023-08-17T08:09:11;27.80;97.80
41256;DHT22;26989;45.524;10.938;2023-08-17T08:11:38;28.40;97.90
41256;DHT22;26989;45.524;10.938;2023-08-17T08:14:05;28.20;97.70
41256;DHT22;26989;45.524;10.938;2023-08-17T08:16:32;29.00;96.90
41256;DHT22;26989;45.524;10.938;2023-08-17T08:18:59;29.50;96.30
41256;DHT22;26989;45.524;10.938;2023-08-17T08:21:25;29.50;96.40
41256;DHT22;26989;45.524;10.938;2023-08-17T08:23:54;29.80;95.80
41256;DHT22;26989;45.524;10.938;2023-08-17T08:26:21;30.10;95.80
41256;DHT22;26989;45.524;10.938;2023-08-17T08:28:48;30.10;95.80
41256;DHT22;26989;45.524;10.938;2023-08-17T08:31:15;30.40;95.80
41256;DHT22;26989;45.524;10.938;2023-08-17T08:33:43;30.50;95.50
41256;DHT22;26989;45.524;10.938;2023-08-17T08:36:10;30.60;95.40
41256;DHT22;26989;45.524;10.938;2023-08-17T08:38:36;30.60;95.30
41256;DHT22;26989;45.524;10.938;2023-08-17T08:41:04;30.70;94.90
41256;DHT22;26989;45.524;10.938;2023-08-17T08:43:32;30.70;95.00
41256;DHT22;26989;45.524;10.938;2023-08-17T08:45:59;30.50;95.20
41256;DHT22;26989;45.524;10.938;2023-08-17T08:48:27;30.50;94.80
41256;DHT22;26989;45.524;10.938;2023-08-17T08:50:55;30.60;94.80
41256;DHT22;26989;45.524;10.938;2023-08-17T08:53:31;30.40;95.20
41256;DHT22;26989;45.524;10.938;2023-08-17T08:56:03;30.20;95.20
41256;DHT22;26989;45.524;10.938;2023-08-17T08:58:31;30.20;95.50
41256;DHT22;26989;45.524;10.938;2023-08-17T09:01:00;30.10;95.70
41256;DHT22;26989;45.524;10.938;2023-08-17T09:03:28;30.10;95.30
41256;DHT22;26989;45.524;10.938;2023-08-17T09:05:57;30.00;95.50
41256;DHT22;26989;45.524;10.938;2023-08-17T09:08:29;30.00;95.20
41256;DHT22;26989;45.524;10.938;2023-08-17T09:10:56;29.80;95.40
41256;DHT22;26989;45.524;10.938;2023-08-17T09:13:24;30.00;95.70
41256;DHT22;26989;45.524;10.938;2023-08-17T09:15:50;30.10;95.40
41256;DHT22;26989;45.524;10.938;2023-08-17T09:18:18;29.90;95.70
41256;DHT22;26989;45.524;10.938;2023-08-17T09:20:47;30.10;95.80
41256;DHT22;26989;45.524;10.938;2023-08-17T09:23:17;30.50;95.40
41256;DHT22;26989;45.524;10.938;2023-08-17T09:25:47;30.60;94.70
41256;DHT22;26989;45.524;10.938;2023-08-17T09:28:16;30.80;94.90
41256;DHT22;26989;45.524;10.938;2023-08-17T09:33:25;31.10;94.20
41256;DHT22;26989;45.524;10.938;2023-08-17T09:35:54;31.40;93.60
41256;DHT22;26989;45.524;10.938;2023-08-17T09:38:24;31.50;94.10
41256;DHT22;26989;45.524;10.938;2023-08-17T09:40:52;32.00;93.50
41256;DHT22;26989;45.524;10.938;2023-08-17T09:43:19;31.80;93.20
41256;DHT22;26989;45.524;10.938;2023-08-17T09:45:48;32.10;92.90
41256;DHT22;26989;45.524;10.938;2023-08-17T09:48:17;31.50;93.30
41256;DHT22;26989;45.524;10.938;2023-08-17T09:50:46;31.30;93.70
41256;DHT22;26989;45.524;10.938;2023-08-17T09:53:18;31.40;93.60
41256;DHT22;26989;45.524;10.938;2023-08-17T09:55:46;31.30;93.80
41256;DHT22;26989;45.524;10.938;2023-08-17T09:58:14;31.30;93.80
41256;DHT22;26989;45.524;10.938;2023-08-17T10:00:45;31.50;93.20
41256;DHT22;26989;45.524;10.938;2023-08-17T10:03:17;31.10;94.10
41256;DHT22;26989;45.524;10.938;2023-08-17T10:05:47;31.00;94.10
41256;DHT22;26989;45.524;10.938;2023-08-17T10:08:19;31.10;93.80
41256;DHT22;26989;45.524;10.938;2023-08-17T10:10:46;31.00;93.90
41256;DHT22;26989;45.524;10.938;2023-08-17T10:13:56;31.00;93.70
41256;DHT22;26989;45.524;10.938;2023-08-17T10:21:48;29.70;95.40
41256;DHT22;26989;45.524;10.938;2023-08-17T10:24:18;29.80;95.40
41256;DHT22;26989;45.524;10.938;2023-08-17T10:26:45;29.00;96.30
41256;DHT22;26989;45.524;10.938;2023-08-17T10:29:13;28.60;96.90
41256;DHT22;26989;45.524;10.938;2023-08-17T10:31:46;28.70;96.70
41256;DHT22;26989;45.524;10.938;2023-08-17T10:34:14;29.10;96.10
41256;DHT22;26989;45.524;10.938;2023-08-17T10:36:42;28.80;96.60
41256;DHT22;26989;45.524;10.938;2023-08-17T10:39:23;28.50;96.70
41256;DHT22;26989;45.524;10.938;2023-08-17T10:41:56;28.40;96.90
41256;DHT22;26989;45.524;10.938;2023-08-17T10:44:47;28.70;96.60
41256;DHT22;26989;45.524;10.938;2023-08-17T10:50:06;28.30;97.40
41256;DHT22;26989;45.524;10.938;2023-08-17T10:52:48;28.40;96.90
41256;DHT22;26989;45.524;10.938;2023-08-17T10:55:16;28.50;96.80
41256;DHT22;26989;45.524;10.938;2023-08-17T10:57:45;28.40;96.70
41256;DHT22;26989;45.524;10.938;2023-08-17T11:00:19;29.10;96.10
41256;DHT22;26989;45.524;10.938;2023-08-17T11:02:59;29.30;95.30
41256;DHT22;26989;45.524;10.938;2023-08-17T11:05:46;28.90;96.00
41256;DHT22;26989;45.524;10.938;2023-08-17T11:08:32;29.50;95.80
41256;DHT22;26989;45.524;10.938;2023-08-17T11:11:09;29.10;95.50
41256;DHT22;26989;45.524;10.938;2023-08-17T11:13:38;29.70;95.10
41256;DHT22;26989;45.524;10.938;2023-08-17T11:16:06;29.70;95.20
41256;DHT22;26989;45.524;10.938;2023-08-17T11:18:34;29.50;95.50
41256;DHT22;26989;45.524;10.938;2023-08-17T11:21:03;29.20;95.50
41256;DHT22;26989;45.524;10.938;2023-08-17T11:23:31;29.60;96.40
41256;DHT22;26989;45.524;10.938;2023-08-17T11:25:59;29.40;95.90
41256;DHT22;26989;45.524;10.938;2023-08-17T11:28:26;29.20;95.80
41256;DHT22;26989;45.524;10.938;2023-08-17T11:31:01;29.10;95.90
41256;DHT22;26989;45.524;10.938;2023-08-17T11:33:30;29.10;96.40
41256;DHT22;26989;45.524;10.938;2023-08-17T11:35:59;29.30;96.00
41256;DHT22;26989;45.524;10.938;2023-08-17T11:38:37;29.70;95.70
41256;DHT22;26989;45.524;10.938;2023-08-17T11:41:04;30.00;95.30
41256;DHT22;26989;45.524;10.938;2023-08-17T11:43:32;29.60;95.80
41256;DHT22;26989;45.524;10.938;2023-08-17T11:46:00;29.90;95.60
41256;DHT22;26989;45.524;10.938;2023-08-17T11:48:28;30.10;95.20
41256;DHT22;26989;45.524;10.938;2023-08-17T11:51:01;30.30;94.80
41256;DHT22;26989;45.524;10.938;2023-08-17T11:53:35;30.40;94.90
41256;DHT22;26989;45.524;10.938;2023-08-17T11:56:02;30.60;94.40
41256;DHT22;26989;45.524;10.938;2023-08-17T11:58:45;30.60;94.10
41256;DHT22;26989;45.524;10.938;2023-08-17T12:01:13;30.50;94.50
41256;DHT22;26989;45.524;10.938;2023-08-17T12:03:43;30.40;93.90
41256;DHT22;26989;45.524;10.938;2023-08-17T12:06:10;30.70;94.30
41256;DHT22;26989;45.524;10.938;2023-08-17T12:08:45;30.90;94.20
41256;DHT22;26989;45.524;10.938;2023-08-17T12:11:16;31.10;94.00
41256;DHT22;26989;45.524;10.938;2023-08-17T12:13:46;31.00;94.20
41256;DHT22;26989;45.524;10.938;2023-08-17T12:16:16;31.20;93.70
41256;DHT22;26989;45.524;10.938;2023-08-17T12:18:52;31.00;94.30
41256;DHT22;26989;45.524;10.938;2023-08-17T12:21:21;30.90;94.00
41256;DHT22;26989;45.524;10.938;2023-08-17T12:23:49;30.90;94.40
41256;DHT22;26989;45.524;10.938;2023-08-17T12:26:20;31.10;94.60
41256;DHT22;26989;45.524;10.938;2023-08-17T12:28:47;30.90;94.30
41256;DHT22;26989;45.524;10.938;2023-08-17T12:31:14;31.10;94.30
41256;DHT22;26989;45.524;10.938;2023-08-17T12:33:40;31.00;94.30
41256;DHT22;26989;45.524;10.938;2023-08-17T12:36:08;30.90;93.90
41256;DHT22;26989;45.524;10.938;2023-08-17T12:38:35;31.00;94.30
41256;DHT22;26989;45.524;10.938;2023-08-17T12:41:02;31.20;94.30
41256;DHT22;26989;45.524;10.938;2023-08-17T12:43:32;31.20;94.60
41256;DHT22;26989;45.524;10.938;2023-08-17T12:45:59;31.10;94.20
41256;DHT22;26989;45.524;10.938;2023-08-17T12:48:26;31.10;93.80
41256;DHT22;26989;45.524;10.938;2023-08-17T12:50:53;31.30;93.60
41256;DHT22;26989;45.524;10.938;2023-08-17T12:53:20;31.40;93.50
41256;DHT22;26989;45.524;10.938;2023-08-17T12:55:48;31.40;93.50
41256;DHT22;26989;45.524;10.938;2023-08-17T12:58:21;31.40;93.20
41256;DHT22;26989;45.524;10.938;2023-08-17T13:00:47;31.40;93.90
41256;DHT22;26989;45.524;10.938;2023-08-17T13:03:20;31.50;93.40
41256;DHT22;26989;45.524;10.938;2023-08-17T13:05:46;31.60;93.30
41256;DHT22;26989;45.524;10.938;2023-08-17T13:08:13;31.60;93.30
41256;DHT22;26989;45.524;10.938;2023-08-17T13:10:40;31.70;93.80
41256;DHT22;26989;45.524;10.938;2023-08-17T13:13:08;31.80;93.60
41256;DHT22;26989;45.524;10.938;2023-08-17T13:15:35;31.90;93.70
41256;DHT22;26989;45.524;10.938;2023-08-17T13:18:03;32.00;93.30
41256;DHT22;26989;45.524;10.938;2023-08-17T13:20:30;32.10;93.50
41256;DHT22;26989;45.524;10.938;2023-08-17T13:22:57;32.00;93.30
41256;DHT22;26989;45.524;10.938;2023-08-17T13:25:24;32.20;93.60
41256;DHT22;26989;45.524;10.938;2023-08-17T13:27:51;32.30;93.30
41256;DHT22;26989;45.524;10.938;2023-08-17T13:30:18;32.30;93.30
41256;DHT22;26989;45.524;10.938;2023-08-17T13:32:45;32.30;93.30
41256;DHT22;26989;45.524;10.938;2023-08-17T13:35:14;32.00;93.50
41256;DHT22;26989;45.524;10.938;2023-08-17T13:37:41;31.80;94.20
41256;DHT22;26989;45.524;10.938;2023-08-17T13:40:08;31.90;92.80
41256;DHT22;26989;45.524;10.938;2023-08-17T13:42:36;32.10;92.80
41256;DHT22;26989;45.524;10.938;2023-08-17T13:45:03;32.20;93.00
41256;DHT22;26989;45.524;10.938;2023-08-17T13:47:30;32.30;93.30
41256;DHT22;26989;45.524;10.938;2023-08-17T13:49:57;32.30;93.00
41256;DHT22;26989;45.524;10.938;2023-08-17T13:52:25;32.30;92.80
41256;DHT22;26989;45.524;10.938;2023-08-17T13:54:52;32.60;92.50
41256;DHT22;26989;45.524;10.938;2023-08-17T13:57:19;32.50;93.00
41256;DHT22;26989;45.524;10.938;2023-08-17T13:59:46;32.30;93.00
41256;DHT22;26989;45.524;10.938;2023-08-17T14:02:13;32.20;93.50
41256;DHT22;26989;45.524;10.938;2023-08-17T14:04:40;32.10;93.20
41256;DHT22;26989;45.524;10.938;2023-08-17T14:07:07;32.10;93.10
41256;DHT22;26989;45.524;10.938;2023-08-17T14:09:34;32.10;93.90
41256;DHT22;26989;45.524;10.938;2023-08-17T14:12:01;32.10;93.00
41256;DHT22;26989;45.524;10.938;2023-08-17T14:14:28;31.90;92.80
41256;DHT22;26989;45.524;10.938;2023-08-17T14:16:55;32.10;92.80
41256;DHT22;26989;45.524;10.938;2023-08-17T14:19:22;32.40;93.20
41256;DHT22;26989;45.524;10.938;2023-08-17T14:21:49;32.50;92.50
41256;DHT22;26989;45.524;10.938;2023-08-17T14:24:16;32.60;92.70
41256;DHT22;26989;45.524;10.938;2023-08-17T14:26:43;32.60;93.00
41256;DHT22;26989;45.524;10.938;2023-08-17T14:29:10;32.70;93.40
41256;DHT22;26989;45.524;10.938;2023-08-17T14:31:37;32.80;92.80
41256;DHT22;26989;45.524;10.938;2023-08-17T14:34:04;32.90;92.10
41256;DHT22;26989;45.524;10.938;2023-08-17T14:36:32;32.70;92.40
41256;DHT22;26989;45.524;10.938;2023-08-17T14:38:59;32.70;92.70
41256;DHT22;26989;45.524;10.938;2023-08-17T14:41:26;32.70;92.60
41256;DHT22;26989;45.524;10.938;2023-08-17T14:44:01;32.60;93.20
41256;DHT22;26989;45.524;10.938;2023-08-17T14:46:29;32.50;93.20
41256;DHT22;26989;45.524;10.938;2023-08-17T14:48:57;32.40;93.70
41256;DHT22;26989;45.524;10.938;2023-08-17T14:51:24;32.30;93.00
41256;DHT22;26989;45.524;10.938;2023-08-17T14:53:56;32.30;92.70
41256;DHT22;26989;45.524;10.938;2023-08-17T14:56:23;32.20;93.20
41256;DHT22;26989;45.524;10.938;2023-08-17T14:58:50;32.10;93.70
41256;DHT22;26989;45.524;10.938;2023-08-17T15:01:17;32.10;93.50
41256;DHT22;26989;45.524;10.938;2023-08-17T15:03:45;32.10;93.40
41256;DHT22;26989;45.524;10.938;2023-08-17T15:06:13;32.00;93.90
41256;DHT22;26989;45.524;10.938;2023-08-17T15:08:59;32.00;93.60
41256;DHT22;26989;45.524;10.938;2023-08-17T15:11:25;31.90;93.90
41256;DHT22;26989;45.524;10.938;2023-08-17T15:13:52;31.90;93.90
41256;DHT22;26989;45.524;10.938;2023-08-17T15:16:19;31.70;93.40
41256;DHT22;26989;45.524;10.938;2023-08-17T15:18:52;31.80;93.60
41256;DHT22;26989;45.524;10.938;2023-08-17T15:21:19;31.80;93.90
41256;DHT22;26989;45.524;10.938;2023-08-17T15:23:46;31.80;93.90
41256;DHT22;26989;45.524;10.938;2023-08-17T15:26:13;31.80;93.90
41256;DHT22;26989;45.524;10.938;2023-08-17T15:28:41;31.70;93.40
41256;DHT22;26989;45.524;10.938;2023-08-17T15:31:08;31.70;94.10
41256;DHT22;26989;45.524;10.938;2023-08-17T15:33:43;31.60;94.20
41256;DHT22;26989;45.524;10.938;2023-08-17T15:36:10;31.60;93.90